createdAt,value
2023-07-10T00:01:42.560Z,24.69
2023-07-10T00:04:20.430Z,24.73
2023-07-10T00:06:48.284Z,24.66
2023-07-10T00:09:14.841Z,24.62
2023-07-10T00:11:42.983Z,24.62
2023-07-10T00:14:25.477Z,24.60
2023-07-10T00:16:53.521Z,24.54
2023-07-10T00:19:23.805Z,24.48
2023-07-10T00:21:51.518Z,24.40
2023-07-10T00:24:17.970Z,24.38
2023-07-10T00:26:44.506Z,24.32
2023-07-10T00:29:23.486Z,24.25
2023-07-10T00:31:50.075Z,24.16
2023-07-10T00:34:18.280Z,24.10
2023-07-10T00:36:51.688Z,23.96
2023-07-10T00:39:25.764Z,23.86
2023-07-10T00:42:11.565Z,23.76
2023-07-10T00:45:01.584Z,23.69
2023-07-10T00:47:36.754Z,23.65
2023-07-10T00:50:10.356Z,23.65
2023-07-10T00:52:41.073Z,23.66
2023-07-10T00:55:32.333Z,23.61
2023-07-10T00:58:30.155Z,23.55
2023-07-10T01:01:07.637Z,23.50
2023-07-10T01:03:35.785Z,23.47
2023-07-10T01:06:17.281Z,23.48
2023-07-10T01:08:49.735Z,23.54
2023-07-10T01:11:17.195Z,23.58
2023-07-10T01:13:47.552Z,23.71
2023-07-10T01:16:14.379Z,23.77
2023-07-10T01:18:42.270Z,23.80
2023-07-10T01:21:09.863Z,23.77
2023-07-10T01:23:36.388Z,23.78
2023-07-10T01:26:05.339Z,23.79
2023-07-10T01:28:36.178Z,23.82
2023-07-10T01:31:09.586Z,23.62
2023-07-10T01:33:41.117Z,23.51
2023-07-10T01:36:10.626Z,23.39
2023-07-10T01:38:47.397Z,23.38
2023-07-10T01:41:24.843Z,23.38
2023-07-10T01:43:51.419Z,23.41
2023-07-10T01:46:24.957Z,23.48
2023-07-10T01:48:56.036Z,23.40
2023-07-10T01:51:23.807Z,23.41
2023-07-10T01:53:51.312Z,23.43
2023-07-10T01:56:20.442Z,23.47
2023-07-10T01:58:46.900Z,23.45
2023-07-10T02:01:13.515Z,23.40
2023-07-10T02:03:40.166Z,23.46
2023-07-10T02:06:06.886Z,23.47
2023-07-10T02:08:33.553Z,23.47
2023-07-10T02:11:00.141Z,23.48
2023-07-10T02:13:26.903Z,23.49
2023-07-10T02:15:53.379Z,23.53
2023-07-10T02:18:19.905Z,23.51
2023-07-10T02:20:46.381Z,23.51
2023-07-10T02:23:12.898Z,23.52
2023-07-10T02:25:39.700Z,23.56
2023-07-10T02:28:07.151Z,23.58
2023-07-10T02:30:33.706Z,23.62
2023-07-10T02:33:00.350Z,23.69
2023-07-10T02:35:26.790Z,23.87
2023-07-10T02:37:53.276Z,23.95
2023-07-10T02:40:19.702Z,23.96
2023-07-10T02:42:46.317Z,23.96
2023-07-10T02:45:14.338Z,23.83
2023-07-10T02:47:40.980Z,23.70
2023-07-10T02:50:10.342Z,23.59
2023-07-10T02:52:36.839Z,23.48
2023-07-10T02:55:03.886Z,23.41
2023-07-10T02:57:30.372Z,23.35
2023-07-10T02:59:58.117Z,23.35
2023-07-10T03:02:25.280Z,23.40
2023-07-10T03:04:51.910Z,23.43
2023-07-10T03:07:18.378Z,23.39
2023-07-10T03:09:45.587Z,23.34
2023-07-10T03:12:12.070Z,23.26
2023-07-10T03:14:38.675Z,23.32
2023-07-10T03:17:05.481Z,23.31
2023-07-10T03:19:32.830Z,23.30
2023-07-10T03:21:59.463Z,23.30
2023-07-10T03:24:26.154Z,23.27
2023-07-10T03:26:52.642Z,23.29
2023-07-10T03:29:19.101Z,23.37
2023-07-10T03:31:45.658Z,23.47
2023-07-10T03:34:13.160Z,23.48
2023-07-10T03:36:40.190Z,23.50
2023-07-10T03:39:07.849Z,23.54
2023-07-10T03:41:34.756Z,23.54
2023-07-10T03:44:01.505Z,23.53
2023-07-10T03:46:28.261Z,23.44
2023-07-10T03:48:54.770Z,23.35
2023-07-10T03:51:21.255Z,23.32
2023-07-10T03:53:48.470Z,23.34
2023-07-10T03:56:14.905Z,23.36
2023-07-10T03:58:44.126Z,23.48
2023-07-10T04:01:11.421Z,23.55
2023-07-10T04:03:40.115Z,23.57
2023-07-10T04:06:08.887Z,23.55
2023-07-10T04:08:38.506Z,23.37
2023-07-10T04:11:08.781Z,23.16
2023-07-10T04:13:35.449Z,22.96
2023-07-10T04:16:10.974Z,22.98
2023-07-10T04:18:39.385Z,22.87
2023-07-10T04:21:29.799Z,22.74
2023-07-10T04:23:57.421Z,22.54
2023-07-10T04:26:26.883Z,22.44
2023-07-10T04:28:56.483Z,22.41
2023-07-10T04:31:24.568Z,22.44
2023-07-10T04:33:52.322Z,22.39
2023-07-10T04:36:20.389Z,22.31
2023-07-10T04:38:47.171Z,22.34
2023-07-10T04:41:19.134Z,22.39
2023-07-10T04:43:45.796Z,22.56
2023-07-10T04:46:14.110Z,22.72
2023-07-10T04:48:40.800Z,22.90
2023-07-10T04:51:09.176Z,23.15
2023-07-10T04:53:35.834Z,23.43
2023-07-10T04:56:04.733Z,23.67
2023-07-10T04:58:46.537Z,23.91
2023-07-10T05:01:13.061Z,24.07
2023-07-10T05:03:39.499Z,24.27
2023-07-10T05:06:06.234Z,24.47
2023-07-10T05:08:32.942Z,24.29
2023-07-10T05:10:59.697Z,24.13
2023-07-10T05:13:28.796Z,24.08
2023-07-10T05:15:57.306Z,24.04
2023-07-10T05:18:24.173Z,23.75
2023-07-10T05:20:50.663Z,23.65
2023-07-10T05:23:17.573Z,23.57
2023-07-10T05:26:03.270Z,23.52
2023-07-10T05:28:30.246Z,23.60
2023-07-10T05:30:59.923Z,23.88
2023-07-10T05:33:26.971Z,24.21
2023-07-10T05:35:56.374Z,24.52
2023-07-10T05:38:25.108Z,24.76
2023-07-10T05:40:51.907Z,24.96
2023-07-10T05:43:18.368Z,25.16
2023-07-10T05:45:45.357Z,25.02
2023-07-10T05:48:11.740Z,24.81
2023-07-10T05:50:38.528Z,24.93
2023-07-10T05:53:05.952Z,25.03
2023-07-10T05:55:32.451Z,25.15
2023-07-10T05:57:59.018Z,25.21
2023-07-10T06:00:25.780Z,25.32
2023-07-10T06:02:52.262Z,25.46
2023-07-10T06:05:18.717Z,25.75
2023-07-10T06:07:45.281Z,26.78
2023-07-10T06:10:11.762Z,28.20
2023-07-10T06:12:38.280Z,29.16
2023-07-10T06:15:05.336Z,30.13
2023-07-10T06:17:31.932Z,30.49
2023-07-10T06:19:58.435Z,30.70
2023-07-10T06:22:25.112Z,30.76
2023-07-10T06:24:51.529Z,31.40
2023-07-10T06:27:18.275Z,31.62
2023-07-10T06:29:44.801Z,30.82
2023-07-10T06:32:11.365Z,30.41
2023-07-10T06:34:37.899Z,30.11
2023-07-10T06:37:04.692Z,29.92
2023-07-10T06:39:31.186Z,30.69
2023-07-10T06:41:57.709Z,31.69
2023-07-10T06:44:24.089Z,32.55
2023-07-10T06:46:50.792Z,33.17
2023-07-10T06:49:17.552Z,33.69
2023-07-10T06:51:44.097Z,33.72
2023-07-10T06:54:11.459Z,33.74
2023-07-10T06:56:38.166Z,33.74
2023-07-10T06:59:04.612Z,33.19
2023-07-10T07:01:31.053Z,32.70
2023-07-10T07:03:57.799Z,32.22
2023-07-10T07:06:24.638Z,32.20
2023-07-10T07:08:53.038Z,31.59
2023-07-10T07:11:20.386Z,31.21
2023-07-10T07:13:47.000Z,31.00
2023-07-10T07:16:14.811Z,30.84
2023-07-10T07:18:41.434Z,30.45
2023-07-10T07:21:08.888Z,30.04
2023-07-10T07:23:35.632Z,30.00
2023-07-10T07:26:02.449Z,30.22
2023-07-10T07:28:29.113Z,31.29
2023-07-10T07:31:02.275Z,31.12
2023-07-10T07:33:28.807Z,30.59
2023-07-10T07:35:55.284Z,30.41
2023-07-10T07:38:22.610Z,30.34
2023-07-10T07:40:49.512Z,30.64
2023-07-10T07:43:17.266Z,31.71
2023-07-10T07:45:57.996Z,31.97
2023-07-10T07:48:26.064Z,31.67
2023-07-10T07:51:15.549Z,32.15
2023-07-10T07:53:42.911Z,32.30
2023-07-10T07:56:10.124Z,32.97
2023-07-10T07:58:37.009Z,33.60
2023-07-10T08:01:04.061Z,34.18
2023-07-10T08:03:31.951Z,34.42
2023-07-10T08:05:58.869Z,35.29
2023-07-10T08:08:25.981Z,35.10
2023-07-10T08:10:52.521Z,34.64
2023-07-10T08:13:21.029Z,34.81
2023-07-10T08:15:47.733Z,34.56
2023-07-10T08:18:14.452Z,35.43
2023-07-10T08:20:41.397Z,35.50
2023-07-10T08:23:07.912Z,36.09
2023-07-10T08:25:34.620Z,36.20
2023-07-10T08:28:01.740Z,36.49
2023-07-10T08:30:28.954Z,36.23
2023-07-10T08:32:55.853Z,36.24
2023-07-10T08:35:23.399Z,36.53
2023-07-10T08:37:50.936Z,36.55
2023-07-10T08:40:41.726Z,35.93
2023-07-10T08:43:41.174Z,36.30
2023-07-10T08:46:11.994Z,36.69
2023-07-10T08:48:57.411Z,37.41
2023-07-10T08:51:40.986Z,37.63
2023-07-10T08:54:12.902Z,37.69
2023-07-10T08:56:51.487Z,37.74
2023-07-10T08:59:43.718Z,37.60
2023-07-10T09:02:32.541Z,36.75
2023-07-10T09:05:00.948Z,36.33
2023-07-10T09:07:28.442Z,35.77
2023-07-10T09:10:03.805Z,35.30
2023-07-10T09:12:42.968Z,34.51
2023-07-10T09:15:16.774Z,33.98
2023-07-10T09:18:02.190Z,33.80
2023-07-10T09:20:28.873Z,33.37
2023-07-10T09:23:18.487Z,33.21
2023-07-10T09:25:44.932Z,33.65
2023-07-10T09:28:11.488Z,34.05
2023-07-10T09:30:52.877Z,33.76
2023-07-10T09:33:21.528Z,33.81
2023-07-10T09:35:49.044Z,34.12
2023-07-10T09:38:19.804Z,34.33
2023-07-10T09:40:51.471Z,34.84
2023-07-10T09:43:21.159Z,35.05
2023-07-10T09:45:58.584Z,35.44
2023-07-10T09:48:32.720Z,35.25
2023-07-10T09:51:03.736Z,35.01
2023-07-10T09:53:33.088Z,35.18
2023-07-10T09:56:00.225Z,35.19
2023-07-10T09:58:27.446Z,35.37
2023-07-10T10:00:54.032Z,34.92
2023-07-10T10:03:26.874Z,35.19
2023-07-10T10:05:56.646Z,35.52
2023-07-10T10:08:28.665Z,35.63
2023-07-10T10:11:02.504Z,35.27
2023-07-10T10:13:31.272Z,34.97
2023-07-10T10:16:07.443Z,34.78
2023-07-10T10:18:58.222Z,34.46
2023-07-10T10:21:25.210Z,34.34
2023-07-10T10:23:58.494Z,34.04
2023-07-10T10:26:30.602Z,34.21
2023-07-10T10:29:00.041Z,34.25
2023-07-10T10:31:32.742Z,34.31
2023-07-10T10:34:24.456Z,34.58
2023-07-10T10:37:27.381Z,34.76
2023-07-10T10:40:12.470Z,34.97
2023-07-10T10:42:50.373Z,35.04
2023-07-10T10:45:35.496Z,35.34
2023-07-10T10:48:16.748Z,35.60
2023-07-10T10:51:27.886Z,35.36
2023-07-10T10:54:03.502Z,35.59
2023-07-10T10:56:39.554Z,35.58
2023-07-10T10:59:24.492Z,35.32
2023-07-10T11:01:53.625Z,35.29
2023-07-10T11:04:37.396Z,35.22
2023-07-10T11:07:11.954Z,35.48
2023-07-10T11:10:00.892Z,35.28
2023-07-10T11:12:31.569Z,35.59
2023-07-10T11:15:03.189Z,35.64
2023-07-10T11:17:30.152Z,35.88
2023-07-10T11:19:56.769Z,35.82
2023-07-10T11:22:32.993Z,36.10
2023-07-10T11:25:02.396Z,35.99
2023-07-10T11:27:34.553Z,35.87
2023-07-10T11:30:09.250Z,35.41
2023-07-10T11:32:56.822Z,35.20
2023-07-10T11:35:24.101Z,34.82
2023-07-10T11:37:50.683Z,34.40
2023-07-10T11:40:29.444Z,33.98
2023-07-10T11:42:56.669Z,34.58
2023-07-10T11:45:37.022Z,35.16
2023-07-10T11:48:03.626Z,35.81
2023-07-10T11:50:30.931Z,35.96
2023-07-10T11:53:15.658Z,35.69
2023-07-10T11:55:54.177Z,35.60
2023-07-10T11:58:30.011Z,35.66
2023-07-10T12:01:16.483Z,35.82
2023-07-10T12:03:43.766Z,35.78
2023-07-10T12:06:25.150Z,35.78
2023-07-10T12:08:53.691Z,35.14
2023-07-10T12:11:27.163Z,34.54
2023-07-10T12:13:54.095Z,35.22
2023-07-10T12:16:36.747Z,35.46
2023-07-10T12:19:15.794Z,35.43
2023-07-10T12:21:43.170Z,35.10
2023-07-10T12:24:14.068Z,35.36
2023-07-10T12:27:05.820Z,35.78
2023-07-10T12:29:27.186Z,35.57
2023-07-10T12:31:53.693Z,35.95
2023-07-10T12:34:25.079Z,36.09
2023-07-10T12:36:54.982Z,36.09
2023-07-10T12:39:23.696Z,36.16
2023-07-10T12:41:53.958Z,36.27
2023-07-10T12:44:44.413Z,36.12
2023-07-10T12:47:14.876Z,35.55
2023-07-10T12:49:51.094Z,35.55
2023-07-10T12:52:17.638Z,35.94
2023-07-10T12:54:51.198Z,35.91
2023-07-10T12:57:26.475Z,36.10
2023-07-10T13:00:01.813Z,36.19
2023-07-10T13:02:36.268Z,36.11
2023-07-10T13:05:06.495Z,35.83
2023-07-10T13:07:36.467Z,36.24
2023-07-10T13:10:20.259Z,36.30
2023-07-10T13:12:49.749Z,36.70
2023-07-10T13:15:18.597Z,36.94
2023-07-10T13:17:49.464Z,36.97
2023-07-10T13:20:28.100Z,36.19
2023-07-10T13:23:00.332Z,35.83
2023-07-10T13:25:32.709Z,36.14
2023-07-10T13:27:59.206Z,36.58
2023-07-10T13:30:26.505Z,36.76
2023-07-10T13:32:53.278Z,36.33
2023-07-10T13:35:20.666Z,36.55
2023-07-10T13:37:47.298Z,36.61
2023-07-10T13:40:20.779Z,36.60
2023-07-10T13:42:47.246Z,36.87
2023-07-10T13:45:13.763Z,36.76
2023-07-10T13:47:40.218Z,36.87
2023-07-10T13:50:07.087Z,36.81
2023-07-10T13:52:33.537Z,36.97
2023-07-10T13:55:00.052Z,36.96
2023-07-10T13:57:31.760Z,37.33
2023-07-10T14:00:02.392Z,37.00
2023-07-10T14:02:38.055Z,36.83
2023-07-10T14:05:12.637Z,36.44
2023-07-10T14:07:41.152Z,36.53
2023-07-10T14:10:13.189Z,36.38
2023-07-10T14:12:39.898Z,35.97
2023-07-10T14:15:06.949Z,35.88
2023-07-10T14:17:35.346Z,36.25
2023-07-10T14:20:06.191Z,36.56
2023-07-10T14:22:34.428Z,36.69
2023-07-10T14:25:01.309Z,37.10
2023-07-10T14:27:28.942Z,36.80
2023-07-10T14:29:57.410Z,36.38
2023-07-10T14:32:26.732Z,36.44
2023-07-10T14:34:53.418Z,36.37
2023-07-10T14:37:26.879Z,36.46
2023-07-10T14:39:53.974Z,36.01
2023-07-10T14:42:26.067Z,35.57
2023-07-10T14:44:52.912Z,35.82
2023-07-10T14:47:19.391Z,36.01
2023-07-10T14:49:49.577Z,35.99
2023-07-10T14:52:25.360Z,35.96
2023-07-10T14:54:59.370Z,36.09
2023-07-10T14:57:29.051Z,35.99
2023-07-10T14:59:56.307Z,36.12
2023-07-10T15:02:26.132Z,35.99
2023-07-10T15:04:53.699Z,35.49
2023-07-10T15:07:21.526Z,35.14
2023-07-10T15:09:50.920Z,35.25
2023-07-10T15:12:21.934Z,35.51
2023-07-10T15:14:51.297Z,35.74
2023-07-10T15:17:26.335Z,35.90
2023-07-10T15:19:53.609Z,35.74
2023-07-10T15:22:22.842Z,35.50
2023-07-10T15:24:50.604Z,35.17
2023-07-10T15:27:17.908Z,35.00
2023-07-10T15:29:44.577Z,34.62
2023-07-10T15:32:17.167Z,34.77
2023-07-10T15:34:45.028Z,34.99
2023-07-10T15:37:21.547Z,35.36
2023-07-10T15:39:48.958Z,35.56
2023-07-10T15:42:17.029Z,35.38
2023-07-10T15:44:44.703Z,35.33
2023-07-10T15:47:37.567Z,35.18
2023-07-10T15:50:04.579Z,35.13
2023-07-10T15:52:35.528Z,35.29
2023-07-10T15:55:20.977Z,35.60
2023-07-10T15:57:49.221Z,35.12
2023-07-10T16:00:18.007Z,35.01
2023-07-10T16:02:47.057Z,34.88
2023-07-10T16:05:21.556Z,34.68
2023-07-10T16:07:49.507Z,34.86
2023-07-10T16:10:16.117Z,34.65
2023-07-10T16:12:43.445Z,34.47
2023-07-10T16:15:15.010Z,34.56
2023-07-10T16:17:41.844Z,34.83
2023-07-10T16:20:14.021Z,34.73
2023-07-10T16:22:40.924Z,34.59
2023-07-10T16:25:15.988Z,34.81
2023-07-10T16:27:44.296Z,34.84
2023-07-10T16:30:19.737Z,35.01
2023-07-10T16:32:49.599Z,34.67
2023-07-10T16:35:18.706Z,34.62
2023-07-10T16:37:45.995Z,34.60
2023-07-10T16:40:17.976Z,34.60
2023-07-10T16:42:46.312Z,34.65
2023-07-10T16:45:22.282Z,34.63
2023-07-10T16:47:49.132Z,34.48
2023-07-10T16:50:18.341Z,34.54
2023-07-10T16:52:46.041Z,34.52
2023-07-10T16:55:18.252Z,34.46
2023-07-10T16:57:47.078Z,34.51
2023-07-10T17:00:16.194Z,34.52
2023-07-10T17:02:45.258Z,34.27
2023-07-10T17:05:14.100Z,34.20
2023-07-10T17:07:42.654Z,34.22
2023-07-10T17:10:09.824Z,34.08
2023-07-10T17:12:37.928Z,33.98
2023-07-10T17:15:14.016Z,34.02
2023-07-10T17:17:40.790Z,34.15
2023-07-10T17:20:10.295Z,34.24
2023-07-10T17:22:36.836Z,34.22
2023-07-10T17:25:10.896Z,34.11
2023-07-10T17:27:37.462Z,33.91
2023-07-10T17:30:05.476Z,33.76
2023-07-10T17:32:32.138Z,33.65
2023-07-10T17:34:59.959Z,33.46
2023-07-10T17:37:26.667Z,33.30
2023-07-10T17:39:53.119Z,33.32
2023-07-10T17:42:25.917Z,33.33
2023-07-10T17:44:52.448Z,33.14
2023-07-10T17:47:19.614Z,32.91
2023-07-10T17:49:46.374Z,32.89
2023-07-10T17:52:18.005Z,32.85
2023-07-10T17:54:45.470Z,32.67
2023-07-10T17:57:18.012Z,32.55
2023-07-10T17:59:46.173Z,32.45
2023-07-10T18:02:23.371Z,32.44
2023-07-10T18:04:50.252Z,32.33
2023-07-10T18:07:16.873Z,32.32
2023-07-10T18:09:43.364Z,32.30
2023-07-10T18:12:14.245Z,32.28
2023-07-10T18:14:46.348Z,32.17
2023-07-10T18:17:20.591Z,32.12
2023-07-10T18:19:50.619Z,32.10
2023-07-10T18:22:17.797Z,32.04
2023-07-10T18:24:44.986Z,31.99
2023-07-10T18:27:21.687Z,31.88
2023-07-10T18:29:49.559Z,31.76
2023-07-10T18:32:21.220Z,31.67
2023-07-10T18:34:50.686Z,31.57
2023-07-10T18:37:19.557Z,31.50
2023-07-10T18:39:46.258Z,31.43
2023-07-10T18:42:22.348Z,31.28
2023-07-10T18:44:48.956Z,31.24
2023-07-10T18:47:15.440Z,31.12
2023-07-10T18:49:42.053Z,31.01
2023-07-10T18:52:30.218Z,30.90
2023-07-10T18:54:56.919Z,30.76
2023-07-10T18:57:23.638Z,30.62
2023-07-10T18:59:50.124Z,30.44
2023-07-10T19:02:16.841Z,30.40
2023-07-10T19:04:43.420Z,30.33
2023-07-10T19:07:13.597Z,30.26
2023-07-10T19:09:42.654Z,30.13
2023-07-10T19:12:16.959Z,30.05
2023-07-10T19:14:45.084Z,29.95
2023-07-10T19:17:21.127Z,29.90
2023-07-10T19:19:52.655Z,29.85
2023-07-10T19:22:19.704Z,29.76
2023-07-10T19:24:46.454Z,29.66
2023-07-10T19:27:12.842Z,29.52
2023-07-10T19:29:40.443Z,29.50
2023-07-10T19:32:21.722Z,29.43
2023-07-10T19:34:49.998Z,29.36
2023-07-10T19:37:16.521Z,29.27
2023-07-10T19:39:44.725Z,29.20
2023-07-10T19:42:11.157Z,29.13
2023-07-10T19:44:55.110Z,29.09
2023-07-10T19:47:24.413Z,29.04
2023-07-10T19:49:52.761Z,28.96
2023-07-10T19:52:19.889Z,28.84
2023-07-10T19:54:46.493Z,28.86
2023-07-10T19:57:18.942Z,28.83
2023-07-10T19:59:45.716Z,28.73
2023-07-10T20:02:14.047Z,28.67
2023-07-10T20:04:40.525Z,28.60
2023-07-10T20:07:07.122Z,28.56
2023-07-10T20:09:33.601Z,28.54
2023-07-10T20:12:00.130Z,28.47
2023-07-10T20:14:28.598Z,28.44
2023-07-10T20:16:56.027Z,28.41
2023-07-10T20:19:24.295Z,28.38
2023-07-10T20:21:55.540Z,28.30
2023-07-10T20:24:22.507Z,28.18
2023-07-10T20:26:49.843Z,28.05
2023-07-10T20:29:19.511Z,27.97
2023-07-10T20:31:47.124Z,27.85
2023-07-10T20:34:14.980Z,27.73
2023-07-10T20:36:44.490Z,27.64
2023-07-10T20:39:16.877Z,27.49
2023-07-10T20:41:44.812Z,27.35
2023-07-10T20:44:15.525Z,27.24
2023-07-10T20:46:44.835Z,27.12
2023-07-10T20:49:19.782Z,27.02
2023-07-10T20:51:46.787Z,26.94
2023-07-10T20:54:15.760Z,26.86
2023-07-10T20:56:43.395Z,26.76
2023-07-10T20:59:21.554Z,26.67
2023-07-10T21:01:49.533Z,26.59
2023-07-10T21:04:17.285Z,26.53
2023-07-10T21:06:43.915Z,26.45
2023-07-10T21:09:28.728Z,26.37
2023-07-10T21:11:55.416Z,26.30
2023-07-10T21:14:22.042Z,26.20
2023-07-10T21:16:48.645Z,26.16
2023-07-10T21:19:23.942Z,26.11
2023-07-10T21:21:51.810Z,26.05
2023-07-10T21:24:21.152Z,26.01
2023-07-10T21:26:55.078Z,26.00
2023-07-10T21:29:21.615Z,25.98
2023-07-10T21:31:48.112Z,25.95
2023-07-10T21:34:15.733Z,25.92
2023-07-10T21:36:43.352Z,25.92
2023-07-10T21:39:10.093Z,25.87
2023-07-10T21:41:39.365Z,25.86
2023-07-10T21:44:09.020Z,25.88
2023-07-10T21:46:36.259Z,25.80
2023-07-10T21:49:03.321Z,25.70
2023-07-10T21:51:29.924Z,25.65
2023-07-10T21:53:56.421Z,25.59
2023-07-10T21:56:25.956Z,25.60
2023-07-10T21:58:55.741Z,25.55
2023-07-10T22:01:26.255Z,25.49
2023-07-10T22:03:53.231Z,25.45
2023-07-10T22:06:19.903Z,25.34
2023-07-10T22:08:46.640Z,25.34
2023-07-10T22:11:20.079Z,25.32
2023-07-10T22:13:48.796Z,25.28
2023-07-10T22:16:30.211Z,25.31
2023-07-10T22:18:59.567Z,25.25
2023-07-10T22:21:30.005Z,25.19
2023-07-10T22:23:57.377Z,25.15
2023-07-10T22:26:25.153Z,25.13
2023-07-10T22:28:51.846Z,25.10
2023-07-10T22:31:24.162Z,25.08
2023-07-10T22:33:51.214Z,25.06
2023-07-10T22:36:19.643Z,25.02
2023-07-10T22:38:46.538Z,24.89
2023-07-10T22:41:31.764Z,24.84
2023-07-10T22:44:08.030Z,24.83
2023-07-10T22:46:36.973Z,24.78
2023-07-10T22:49:05.191Z,24.72
2023-07-10T22:51:34.137Z,24.67
2023-07-10T22:54:04.820Z,24.60
2023-07-10T22:56:34.304Z,24.59
2023-07-10T22:59:01.417Z,24.54
2023-07-10T23:01:28.577Z,24.44
2023-07-10T23:03:55.410Z,24.39
2023-07-10T23:06:28.107Z,24.36
2023-07-10T23:08:55.615Z,24.34
2023-07-10T23:11:22.558Z,24.31
2023-07-10T23:13:50.179Z,24.24
2023-07-10T23:16:21.522Z,24.20
2023-07-10T23:18:59.193Z,24.12
2023-07-10T23:21:27.635Z,24.07
2023-07-10T23:23:54.463Z,24.04
2023-07-10T23:26:22.847Z,24.00
2023-07-10T23:28:50.045Z,23.98
2023-07-10T23:31:23.738Z,23.98
2023-07-10T23:33:50.895Z,23.93
2023-07-10T23:36:18.167Z,23.79
2023-07-10T23:38:44.697Z,23.72
2023-07-10T23:41:12.741Z,23.74
2023-07-10T23:43:40.348Z,23.71
2023-07-10T23:46:07.543Z,23.69
2023-07-10T23:48:34.523Z,23.62
2023-07-10T23:51:01.405Z,23.59
2023-07-10T23:53:28.156Z,23.52
2023-07-10T23:55:54.644Z,23.47
2023-07-10T23:58:21.244Z,23.44
